createdAt,value
2018-06-15T00:00:31.313Z,48.47
2018-06-15T00:03:03.058Z,51.93
2018-06-15T00:05:33.164Z,46.57
2018-06-15T00:08:02.731Z,43.93
2018-06-15T00:10:32.268Z,50.83
2018-06-15T00:13:01.839Z,49.70
2018-06-15T00:15:31.358Z,45.93
2018-06-15T00:18:00.945Z,45.97
2018-06-15T00:20:30.571Z,42.00
2018-06-15T00:23:00.138Z,45.23
2018-06-15T00:25:29.673Z,41.67
2018-06-15T00:27:58.806Z,43.57
2018-06-15T00:30:28.229Z,44.47
2018-06-15T00:32:57.779Z,42.23
2018-06-15T00:35:27.481Z,48.03
2018-06-15T00:37:57.048Z,48.87
2018-06-15T00:40:26.694Z,51.77
2018-06-15T00:42:56.188Z,46.80
2018-06-15T00:45:25.762Z,50.70
2018-06-15T00:47:56.119Z,53.67
2018-06-15T00:50:25.732Z,49.27
2018-06-15T00:52:55.315Z,53.33
2018-06-15T00:55:24.917Z,54.10
2018-06-15T00:57:54.459Z,55.40
2018-06-15T01:00:23.605Z,51.43
2018-06-15T01:02:53.066Z,50.70
2018-06-15T01:05:22.644Z,54.13
2018-06-15T01:07:52.406Z,51.93
2018-06-15T01:10:22.460Z,53.73
2018-06-15T01:12:51.994Z,53.97
2018-06-15T01:15:21.168Z,53.40
2018-06-15T01:17:50.615Z,53.77
2018-06-15T01:20:20.300Z,51.43
2018-06-15T01:22:49.886Z,49.73
2018-06-15T01:25:19.408Z,52.77
2018-06-15T01:27:48.598Z,51.23
2018-06-15T01:30:18.028Z,54.27
2018-06-15T01:32:47.614Z,58.40
2018-06-15T01:35:17.210Z,51.57
2018-06-15T01:37:47.234Z,50.23
2018-06-15T01:40:16.844Z,53.70
2018-06-15T01:42:46.045Z,49.93
2018-06-15T01:45:15.513Z,51.87
2018-06-15T01:47:45.066Z,50.83
2018-06-15T01:50:14.774Z,48.80
2018-06-15T01:52:44.307Z,50.90
2018-06-15T01:55:13.943Z,53.20
2018-06-15T01:57:43.573Z,50.23
2018-06-15T02:00:12.729Z,50.87
2018-06-15T02:02:42.475Z,51.90
2018-06-15T02:05:12.086Z,49.00
2018-06-15T02:07:41.348Z,51.23
2018-06-15T02:10:10.835Z,54.13
2018-06-15T02:12:41.174Z,44.33
2018-06-15T02:15:10.724Z,44.30
2018-06-15T02:17:39.900Z,44.20
2018-06-15T02:20:09.449Z,56.77
2018-06-15T02:22:39.004Z,53.63
2018-06-15T02:25:08.651Z,48.87
2018-06-15T02:27:38.208Z,56.40
2018-06-15T02:30:07.889Z,51.97
2018-06-15T02:32:37.457Z,47.87
2018-06-15T02:35:07.652Z,43.73
2018-06-15T02:37:37.240Z,56.97
2018-06-15T02:40:06.892Z,48.00
2018-06-15T02:42:36.849Z,55.53
2018-06-15T02:45:06.425Z,51.10
2018-06-15T02:47:36.015Z,44.40
2018-06-15T02:50:05.201Z,48.07
2018-06-15T02:52:34.764Z,49.30
2018-06-15T02:55:04.472Z,48.53
2018-06-15T02:57:34.511Z,50.80
2018-06-15T03:00:04.115Z,38.40
2018-06-15T03:02:33.697Z,49.03
2018-06-15T03:05:03.327Z,42.93
2018-06-15T03:07:32.971Z,46.10
2018-06-15T03:10:02.645Z,49.43
2018-06-15T03:12:32.260Z,38.60
2018-06-15T03:15:01.806Z,44.67
2018-06-15T03:17:31.387Z,43.13
2018-06-15T03:20:00.953Z,48.43
2018-06-15T03:22:30.507Z,45.57
2018-06-15T03:25:00.119Z,52.27
2018-06-15T03:27:29.669Z,48.03
2018-06-15T03:29:59.238Z,47.93
2018-06-15T03:32:28.812Z,49.03
2018-06-15T03:34:58.359Z,48.13
2018-06-15T03:37:27.966Z,45.13
2018-06-15T03:39:57.551Z,45.27
2018-06-15T03:42:26.798Z,42.47
2018-06-15T03:44:56.225Z,45.07
2018-06-15T03:47:25.777Z,47.83
2018-06-15T03:49:55.381Z,49.90
2018-06-15T03:52:24.932Z,45.93
2018-06-15T03:54:54.500Z,46.57
2018-06-15T03:57:24.031Z,48.50
2018-06-15T03:59:53.604Z,48.47
2018-06-15T04:02:23.147Z,46.30
2018-06-15T04:04:52.691Z,50.50
2018-06-15T04:07:22.276Z,47.93
2018-06-15T04:09:52.265Z,53.87
2018-06-15T04:12:21.800Z,55.77
2018-06-15T04:14:51.394Z,50.33
2018-06-15T04:17:20.936Z,45.90
2018-06-15T04:19:50.507Z,49.80
2018-06-15T04:22:20.126Z,45.30
2018-06-15T04:24:49.620Z,46.73
2018-06-15T04:27:19.174Z,50.87
2018-06-15T04:29:48.706Z,45.03
2018-06-15T04:32:18.270Z,48.80
2018-06-15T04:34:47.798Z,46.57
2018-06-15T04:37:17.448Z,44.33
2018-06-15T04:39:46.987Z,39.67
2018-06-15T04:42:16.515Z,46.37
2018-06-15T04:44:46.057Z,41.80
2018-06-15T04:47:15.642Z,45.27
2018-06-15T04:49:45.212Z,49.63
2018-06-15T04:52:14.757Z,52.50
2018-06-15T04:54:44.332Z,40.10
2018-06-15T04:57:13.899Z,40.10
2018-06-15T04:59:43.498Z,42.97
2018-06-15T05:02:13.016Z,45.93
2018-06-15T05:04:42.559Z,43.83
2018-06-15T05:07:12.149Z,43.27
2018-06-15T05:09:41.704Z,42.73
2018-06-15T05:12:11.518Z,43.57
2018-06-15T05:14:41.164Z,42.43
2018-06-15T05:17:10.773Z,46.53
2018-06-15T05:19:39.956Z,41.23
2018-06-15T05:22:09.426Z,44.50
2018-06-15T05:24:39.057Z,42.97
2018-06-15T05:27:08.763Z,42.60
2018-06-15T05:29:38.379Z,39.77
2018-06-15T05:32:08.081Z,34.20
2018-06-15T05:34:37.187Z,33.43
2018-06-15T05:37:06.654Z,28.73
2018-06-15T05:39:36.230Z,33.53
2018-06-15T05:42:05.913Z,28.80
2018-06-15T05:44:35.444Z,33.07
2018-06-15T05:47:05.209Z,31.83
2018-06-15T05:49:35.084Z,29.57
2018-06-15T05:52:04.690Z,32.50
2018-06-15T05:54:34.225Z,33.40
2018-06-15T05:57:04.232Z,32.07
2018-06-15T05:59:33.771Z,29.43
2018-06-15T06:02:03.360Z,29.27
2018-06-15T06:04:32.899Z,33.87
2018-06-15T06:07:02.475Z,31.20
2018-06-15T06:09:32.081Z,30.40
2018-06-15T06:12:01.202Z,35.13
2018-06-15T06:14:30.615Z,33.63
2018-06-15T06:17:00.162Z,33.37
2018-06-15T06:19:29.665Z,31.00
2018-06-15T06:21:59.178Z,30.47
2018-06-15T06:24:28.689Z,32.90
2018-06-15T06:26:58.296Z,27.27
2018-06-15T06:29:27.430Z,28.73
2018-06-15T06:31:56.518Z,27.27
2018-06-15T06:34:25.888Z,29.20
2018-06-15T06:36:55.392Z,25.20
2018-06-15T06:39:24.945Z,25.80
2018-06-15T06:41:54.542Z,26.07
2018-06-15T06:44:24.117Z,23.53
2018-06-15T06:46:53.257Z,26.47
2018-06-15T06:49:22.671Z,26.53
2018-06-15T06:51:52.185Z,25.90
2018-06-15T06:54:21.675Z,27.37
2018-06-15T06:56:51.230Z,30.83
2018-06-15T06:59:20.881Z,25.70
2018-06-15T07:01:50.414Z,26.23
2018-06-15T07:04:20.039Z,29.30
2018-06-15T07:06:49.542Z,25.90
2018-06-15T07:09:19.095Z,26.27
2018-06-15T07:11:48.643Z,23.77
2018-06-15T07:14:18.148Z,22.67
2018-06-15T07:16:47.660Z,25.47
2018-06-15T07:19:17.207Z,23.50
2018-06-15T07:21:46.794Z,26.07
2018-06-15T07:24:16.348Z,25.10
2018-06-15T07:26:45.872Z,23.60
2018-06-15T07:29:15.545Z,27.87
2018-06-15T07:31:45.386Z,24.23
2018-06-15T07:34:14.959Z,24.40
2018-06-15T07:36:44.499Z,22.60
2018-06-15T07:39:14.066Z,23.97
2018-06-15T07:41:43.713Z,25.23
2018-06-15T07:44:13.224Z,26.20
2018-06-15T07:46:42.784Z,21.60
2018-06-15T07:49:12.284Z,22.03
2018-06-15T07:51:41.857Z,23.87
2018-06-15T07:54:10.993Z,21.60
2018-06-15T07:56:40.465Z,25.07
2018-06-15T07:59:09.993Z,24.27
2018-06-15T08:01:39.929Z,22.43
2018-06-15T08:04:11.758Z,22.70
2018-06-15T08:06:42.163Z,22.17
2018-06-15T08:09:11.333Z,21.23
2018-06-15T08:11:40.707Z,22.43
2018-06-15T08:14:10.295Z,21.53
2018-06-15T08:16:39.851Z,20.97
2018-06-15T08:19:09.396Z,23.47
2018-06-15T08:21:39.824Z,22.87
2018-06-15T08:24:09.507Z,23.27
2018-06-15T08:26:39.008Z,23.83
2018-06-15T08:29:08.118Z,22.70
2018-06-15T08:31:37.554Z,26.47
2018-06-15T08:34:07.056Z,24.07
2018-06-15T08:36:36.583Z,21.83
2018-06-15T08:39:09.398Z,25.40
2018-06-15T08:41:38.965Z,20.93
2018-06-15T08:44:08.420Z,19.80
2018-06-15T08:46:38.278Z,17.87
2018-06-15T08:49:07.887Z,20.23
2018-06-15T08:51:37.415Z,17.10
2018-06-15T08:54:06.567Z,19.87
2018-06-15T08:56:36.013Z,19.87
2018-06-15T08:59:05.566Z,19.90
2018-06-15T09:01:35.091Z,21.87
2018-06-15T09:04:04.670Z,18.17
2018-06-15T09:06:34.260Z,18.23
2018-06-15T09:09:04.615Z,21.93
2018-06-15T09:11:34.235Z,20.67
2018-06-15T09:14:03.915Z,20.67
2018-06-15T09:16:33.603Z,15.33
2018-06-15T09:19:03.246Z,15.37
2018-06-15T09:21:32.949Z,17.07
2018-06-15T09:24:02.629Z,17.37
2018-06-15T09:26:32.288Z,15.97
2018-06-15T09:29:01.956Z,13.60
2018-06-15T09:31:31.599Z,16.47
2018-06-15T09:34:01.346Z,13.63
2018-06-15T09:36:31.044Z,10.70
2018-06-15T09:39:00.735Z,11.07
2018-06-15T09:41:30.368Z,9.73
2018-06-15T09:43:59.716Z,11.13
2018-06-15T09:46:29.210Z,8.13
2018-06-15T09:48:59.292Z,10.53
2018-06-15T09:51:28.528Z,12.37
2018-06-15T09:53:58.064Z,13.30
2018-06-15T09:56:27.746Z,11.83
2018-06-15T09:58:57.667Z,11.37
2018-06-15T10:01:27.360Z,9.13
2018-06-15T10:03:57.232Z,11.63
2018-06-15T10:06:26.877Z,10.17
2018-06-15T10:08:56.542Z,9.87
2018-06-15T10:11:26.519Z,11.67
2018-06-15T10:13:56.055Z,10.50
2018-06-15T10:16:25.700Z,7.50
2018-06-15T10:18:55.205Z,7.20
2018-06-15T10:21:24.694Z,7.97
2018-06-15T10:23:54.205Z,6.43
2018-06-15T10:26:23.275Z,9.73
2018-06-15T10:28:52.676Z,8.93
2018-06-15T10:31:22.305Z,7.57
2018-06-15T10:33:51.828Z,5.73
2018-06-15T10:36:21.340Z,4.87
2018-06-15T10:38:51.172Z,9.07
2018-06-15T10:41:20.683Z,7.90
2018-06-15T10:43:50.184Z,7.30
2018-06-15T10:46:19.942Z,6.63
2018-06-15T10:48:49.464Z,5.47
2018-06-15T10:51:18.987Z,7.37
2018-06-15T10:53:48.507Z,6.13
2018-06-15T10:56:18.026Z,6.77
2018-06-15T10:58:47.562Z,8.27
2018-06-15T11:01:17.105Z,7.60
2018-06-15T11:03:46.611Z,7.53
2018-06-15T11:06:16.187Z,7.93
2018-06-15T11:08:45.696Z,8.63
2018-06-15T11:11:15.588Z,7.10
2018-06-15T11:13:44.743Z,7.77
2018-06-15T11:16:14.143Z,7.33
2018-06-15T11:18:43.670Z,5.87
2018-06-15T11:21:13.232Z,8.90
2018-06-15T11:23:42.760Z,7.77
2018-06-15T11:26:12.304Z,9.83
2018-06-15T11:28:41.812Z,5.93
2018-06-15T11:31:10.980Z,6.30
2018-06-15T11:33:40.448Z,6.13
2018-06-15T11:36:09.948Z,6.17
2018-06-15T11:38:39.775Z,7.70
2018-06-15T11:41:09.290Z,6.80
2018-06-15T11:43:38.781Z,8.30
2018-06-15T11:46:08.388Z,10.93
2018-06-15T11:48:37.862Z,5.97
2018-06-15T11:51:07.403Z,9.43
2018-06-15T11:53:36.905Z,6.73
2018-06-15T11:56:06.446Z,6.63
2018-06-15T11:58:35.904Z,7.33
2018-06-15T12:01:05.421Z,4.80
2018-06-15T12:03:34.892Z,4.97
2018-06-15T12:06:04.905Z,10.87
2018-06-15T12:08:34.397Z,5.10
2018-06-15T12:11:03.942Z,5.10
2018-06-15T12:13:33.447Z,8.60
2018-06-15T12:16:02.945Z,4.77
2018-06-15T12:18:32.450Z,5.40
2018-06-15T12:21:01.989Z,3.60
2018-06-15T12:23:31.515Z,4.77
2018-06-15T12:26:01.000Z,4.03
2018-06-15T12:28:30.519Z,4.23
2018-06-15T12:31:00.041Z,4.63
2018-06-15T12:33:29.517Z,5.03
2018-06-15T12:35:59.017Z,4.53
2018-06-15T12:38:28.629Z,4.97
2018-06-15T12:40:58.137Z,6.07
2018-06-15T12:43:27.699Z,4.27
2018-06-15T12:45:57.239Z,5.73
2018-06-15T12:48:26.686Z,5.47
2018-06-15T12:50:56.394Z,5.07
2018-06-15T12:53:25.879Z,4.80
2018-06-15T12:55:55.461Z,4.53
2018-06-15T12:58:24.959Z,3.40
2018-06-15T13:00:54.548Z,4.90
2018-06-15T13:03:24.070Z,3.93
2018-06-15T13:05:53.607Z,3.93
2018-06-15T13:08:23.096Z,5.83
2018-06-15T13:10:52.609Z,5.00
2018-06-15T13:13:22.136Z,6.53
2018-06-15T13:15:51.645Z,6.33
2018-06-15T13:18:21.161Z,3.50
2018-06-15T13:20:50.669Z,5.33
2018-06-15T13:23:20.124Z,5.93
2018-06-15T13:25:49.206Z,4.57
2018-06-15T13:28:18.563Z,4.10
2018-06-15T13:30:48.047Z,5.10
2018-06-15T13:33:17.544Z,5.33
2018-06-15T13:35:47.086Z,3.97
2018-06-15T13:38:16.642Z,3.40
2018-06-15T13:40:46.125Z,5.97
2018-06-15T13:43:15.670Z,5.60
2018-06-15T13:45:45.185Z,4.17
2018-06-15T13:48:14.878Z,6.97
2018-06-15T13:50:44.462Z,4.10
2018-06-15T13:53:14.325Z,5.13
2018-06-15T13:55:43.816Z,5.83
2018-06-15T13:58:13.328Z,3.67
2018-06-15T14:00:43.187Z,4.07
2018-06-15T14:03:12.805Z,4.73
2018-06-15T14:05:41.949Z,3.77
2018-06-15T14:08:11.336Z,7.80
2018-06-15T14:10:40.821Z,4.87
2018-06-15T14:13:10.444Z,4.07
2018-06-15T14:15:39.919Z,6.87
2018-06-15T14:18:09.429Z,5.33
2018-06-15T14:20:38.949Z,5.33
2018-06-15T14:23:08.410Z,5.30
2018-06-15T14:25:37.925Z,4.60
2018-06-15T14:28:07.445Z,6.33
2018-06-15T14:30:36.987Z,4.90
2018-06-15T14:33:06.465Z,5.33
2018-06-15T14:35:35.914Z,7.10
2018-06-15T14:38:05.428Z,7.97
2018-06-15T14:40:34.968Z,5.73
2018-06-15T14:43:04.564Z,7.03
2018-06-15T14:45:34.899Z,7.87
2018-06-15T14:48:04.440Z,5.87
2018-06-15T14:50:33.919Z,6.97
2018-06-15T14:53:03.509Z,4.83
2018-06-15T14:55:33.035Z,7.13
2018-06-15T14:58:02.573Z,6.50
2018-06-15T15:00:32.112Z,5.97
2018-06-15T15:03:01.690Z,5.20
2018-06-15T15:05:31.578Z,4.87
2018-06-15T15:08:01.097Z,6.43
2018-06-15T15:10:30.557Z,6.00
2018-06-15T15:13:00.136Z,6.03
2018-06-15T15:15:29.234Z,5.37
2018-06-15T15:17:58.575Z,6.77
2018-06-15T15:20:28.120Z,6.87
2018-06-15T15:22:57.642Z,6.40
2018-06-15T15:25:27.272Z,5.97
2018-06-15T15:27:56.769Z,4.77
2018-06-15T15:30:26.232Z,4.83
2018-06-15T15:32:55.783Z,5.77
2018-06-15T15:35:25.287Z,5.80
2018-06-15T15:37:54.825Z,6.77
2018-06-15T15:40:24.385Z,7.80
2018-06-15T15:42:53.923Z,9.70
2018-06-15T15:45:23.466Z,5.73
2018-06-15T15:47:53.042Z,6.60
2018-06-15T15:50:22.575Z,6.13
2018-06-15T15:52:52.095Z,5.70
2018-06-15T15:55:21.203Z,5.67
2018-06-15T15:57:50.627Z,6.27
2018-06-15T16:00:19.757Z,6.67
2018-06-15T16:02:49.122Z,7.60
2018-06-15T16:05:18.675Z,6.83
2018-06-15T16:07:48.590Z,7.10
2018-06-15T16:10:18.083Z,6.43
2018-06-15T16:12:47.650Z,6.37
2018-06-15T16:15:17.181Z,7.13
2018-06-15T16:17:46.700Z,4.83
2018-06-15T16:20:16.227Z,5.10
2018-06-15T16:22:45.923Z,7.45
2018-06-15T16:25:15.624Z,6.47
2018-06-15T16:27:45.621Z,7.72
2018-06-15T16:30:15.179Z,4.83
2018-06-15T16:32:44.703Z,6.17
2018-06-15T16:35:14.312Z,6.07
2018-06-15T16:37:43.809Z,5.50
2018-06-15T16:40:13.304Z,6.80
2018-06-15T16:42:42.819Z,7.17
2018-06-15T16:45:12.841Z,7.10
2018-06-15T16:47:42.346Z,7.40
2018-06-15T16:50:11.900Z,6.57
2018-06-15T16:52:41.407Z,5.30
2018-06-15T16:55:10.904Z,6.17
2018-06-15T16:57:40.401Z,6.60
2018-06-15T17:00:09.926Z,5.30
2018-06-15T17:02:39.432Z,6.27
2018-06-15T17:05:08.559Z,8.60
2018-06-15T17:07:37.985Z,7.30
2018-06-15T17:10:07.500Z,6.63
2018-06-15T17:12:37.036Z,5.83
2018-06-15T17:15:06.600Z,8.23
2018-06-15T17:17:36.251Z,5.67
2018-06-15T17:20:05.790Z,8.37
2018-06-15T17:22:35.293Z,6.47
2018-06-15T17:25:04.876Z,6.05
2018-06-15T17:27:34.405Z,6.83
2018-06-15T17:30:04.015Z,8.27
2018-06-15T17:32:33.545Z,6.37
2018-06-15T17:35:03.075Z,6.10
2018-06-15T17:37:32.539Z,7.93
2018-06-15T17:40:02.196Z,7.30
2018-06-15T17:42:31.664Z,6.77
2018-06-15T17:45:01.172Z,7.20
2018-06-15T17:47:30.675Z,6.07
2018-06-15T17:50:00.151Z,10.50
2018-06-15T17:52:29.698Z,5.77
2018-06-15T17:54:59.175Z,7.13
2018-06-15T17:57:28.765Z,6.23
2018-06-15T17:59:58.297Z,5.90
2018-06-15T18:02:27.913Z,7.20
2018-06-15T18:04:57.522Z,5.93
2018-06-15T18:07:27.111Z,6.70
2018-06-15T18:09:56.705Z,6.63
2018-06-15T18:12:26.293Z,6.70
2018-06-15T18:14:55.915Z,6.87
2018-06-15T18:17:25.413Z,6.27
2018-06-15T18:19:54.909Z,6.63
2018-06-15T18:22:24.540Z,5.43
2018-06-15T18:24:54.150Z,5.80
2018-06-15T18:27:23.672Z,7.00
2018-06-15T18:29:53.217Z,6.27
2018-06-15T18:32:22.774Z,5.83
2018-06-15T18:34:52.294Z,6.30
2018-06-15T18:37:21.816Z,5.97
2018-06-15T18:39:51.364Z,5.90
2018-06-15T18:42:20.910Z,6.40
2018-06-15T18:44:50.485Z,6.90
2018-06-15T18:47:20.059Z,6.73
2018-06-15T18:49:49.621Z,6.23
2018-06-15T18:52:19.152Z,6.40
2018-06-15T18:54:48.709Z,7.17
2018-06-15T18:57:18.359Z,6.27
2018-06-15T18:59:47.836Z,6.03
2018-06-15T19:02:17.793Z,7.17
2018-06-15T19:04:47.290Z,6.83
2018-06-15T19:07:16.867Z,6.67
2018-06-15T19:09:46.390Z,7.23
2018-06-15T19:12:16.005Z,6.53
2018-06-15T19:14:45.482Z,7.60
2018-06-15T19:17:14.961Z,6.90
2018-06-15T19:19:44.491Z,7.33
2018-06-15T19:22:14.011Z,7.67
2018-06-15T19:24:43.536Z,7.73
2018-06-15T19:27:13.020Z,7.70
2018-06-15T19:29:42.573Z,8.00
2018-06-15T19:32:12.147Z,8.23
2018-06-15T19:34:41.321Z,7.07
2018-06-15T19:37:10.685Z,7.83
2018-06-15T19:39:40.259Z,7.70
2018-06-15T19:42:09.764Z,7.13
2018-06-15T19:44:39.301Z,7.43
2018-06-15T19:47:08.854Z,8.23
2018-06-15T19:49:38.410Z,9.20
2018-06-15T19:52:07.976Z,7.30
2018-06-15T19:54:37.463Z,8.57
2018-06-15T19:57:07.114Z,8.57
2018-06-15T19:59:36.665Z,8.67
2018-06-15T20:02:06.250Z,9.07
2018-06-15T20:04:35.751Z,7.80
2018-06-15T20:07:05.276Z,8.00
2018-06-15T20:09:34.746Z,8.73
2018-06-15T20:12:04.306Z,7.53
2018-06-15T20:14:33.450Z,8.73
2018-06-15T20:17:02.800Z,7.87
2018-06-15T20:19:32.447Z,8.37
2018-06-15T20:22:02.021Z,8.23
2018-06-15T20:24:31.586Z,9.70
2018-06-15T20:27:01.109Z,8.73
2018-06-15T20:29:30.643Z,8.30
2018-06-15T20:32:00.515Z,9.03
2018-06-15T20:34:30.058Z,8.00
2018-06-15T20:36:59.572Z,9.70
2018-06-15T20:39:29.061Z,9.80
2018-06-15T20:41:58.539Z,9.77
2018-06-15T20:44:28.052Z,10.60
2018-06-15T20:46:57.570Z,11.80
2018-06-15T20:49:27.192Z,11.20
2018-06-15T20:51:56.670Z,9.60
2018-06-15T20:54:25.773Z,9.73
2018-06-15T20:56:55.106Z,8.80
2018-06-15T20:59:24.641Z,9.07
2018-06-15T21:01:54.166Z,8.90
2018-06-15T21:04:23.712Z,11.27
2018-06-15T21:06:53.321Z,9.70
2018-06-15T21:09:22.818Z,9.83
2018-06-15T21:11:52.287Z,10.57
2018-06-15T21:14:21.818Z,9.83
2018-06-15T21:16:51.284Z,9.77
2018-06-15T21:19:20.784Z,12.00
2018-06-15T21:21:50.277Z,11.67
2018-06-15T21:24:19.760Z,11.53
2018-06-15T21:26:49.251Z,10.33
2018-06-15T21:29:18.814Z,11.07
2018-06-15T21:31:48.302Z,9.97
2018-06-15T21:34:17.820Z,11.07
2018-06-15T21:36:47.283Z,10.17
2018-06-15T21:39:16.827Z,11.20
2018-06-15T21:41:46.311Z,11.10
2018-06-15T21:44:15.786Z,9.97
2018-06-15T21:46:45.327Z,10.93
2018-06-15T21:49:14.832Z,11.57
2018-06-15T21:51:44.361Z,10.90
2018-06-15T21:54:13.479Z,9.83
2018-06-15T21:56:42.484Z,11.60
2018-06-15T21:59:11.843Z,12.53
2018-06-15T22:01:41.475Z,11.10
2018-06-15T22:04:10.982Z,11.47
2018-06-15T22:06:40.443Z,11.93
2018-06-15T22:09:09.990Z,10.50
2018-06-15T22:11:39.450Z,12.30
2018-06-15T22:14:09.070Z,11.27
2018-06-15T22:16:43.867Z,12.67
2018-06-15T22:19:13.366Z,10.70
2018-06-15T22:21:42.814Z,12.83
2018-06-15T22:24:12.307Z,11.70
2018-06-15T22:26:41.796Z,11.50
2018-06-15T22:29:11.370Z,12.43
2018-06-15T22:31:40.903Z,11.43
2018-06-15T22:34:10.404Z,11.13
2018-06-15T22:36:40.766Z,11.40
2018-06-15T22:39:13.271Z,11.50
2018-06-15T22:41:43.346Z,11.80
2018-06-15T22:44:13.645Z,11.63
2018-06-15T22:46:43.578Z,11.40
2018-06-15T22:49:13.120Z,10.13
2018-06-15T22:51:42.652Z,12.53
2018-06-15T22:54:12.139Z,11.57
2018-06-15T22:56:41.677Z,12.70
2018-06-15T22:59:11.196Z,12.07
2018-06-15T23:01:40.730Z,12.00
2018-06-15T23:04:10.235Z,11.70
2018-06-15T23:06:39.850Z,13.73
2018-06-15T23:09:11.034Z,10.93
2018-06-15T23:11:41.098Z,15.40
2018-06-15T23:14:10.863Z,12.30
2018-06-15T23:16:40.376Z,14.50
2018-06-15T23:19:09.892Z,12.90
2018-06-15T23:21:39.390Z,13.17
2018-06-15T23:24:08.893Z,14.20
2018-06-15T23:26:38.327Z,13.10
2018-06-15T23:29:07.821Z,14.37
2018-06-15T23:31:37.008Z,11.57
2018-06-15T23:34:06.399Z,12.87
2018-06-15T23:36:35.897Z,11.60
2018-06-15T23:39:07.490Z,12.50
2018-06-15T23:41:36.992Z,12.17
2018-06-15T23:44:06.509Z,10.87
2018-06-15T23:46:36.167Z,10.33
2018-06-15T23:49:05.739Z,12.87
2018-06-15T23:51:35.301Z,11.73
2018-06-15T23:54:04.787Z,11.60
2018-06-15T23:56:34.423Z,11.83
2018-06-15T23:59:03.988Z,11.70
